createdAt,value
2022-08-10T00:00:01.698Z,20.9
2022-08-10T00:01:01.247Z,20.9
2022-08-10T00:02:01.157Z,20.9
2022-08-10T00:03:00.920Z,20.9
2022-08-10T00:04:00.678Z,20.9
2022-08-10T00:05:01.066Z,20.9
2022-08-10T00:06:00.701Z,20.9
2022-08-10T00:07:00.427Z,20.9
2022-08-10T00:08:00.068Z,20.9
2022-08-10T00:08:59.729Z,20.9
2022-08-10T00:10:01.438Z,20.9
2022-08-10T00:11:01.883Z,20.9
2022-08-10T00:12:02.762Z,20.9
2022-08-10T00:13:01.730Z,20.9
2022-08-10T00:14:00.712Z,20.9
2022-08-10T00:15:00.498Z,20.9
2022-08-10T00:16:00.238Z,20.9
2022-08-10T00:16:59.991Z,20.9
2022-08-10T00:17:59.652Z,20.9
2022-08-10T00:19:01.291Z,20.8
2022-08-10T00:20:03.809Z,20.8
2022-08-10T00:21:01.075Z,20.8
2022-08-10T00:22:00.771Z,20.8
2022-08-10T00:23:00.441Z,20.8
2022-08-10T00:24:00.192Z,20.8
2022-08-10T00:24:59.970Z,20.7
2022-08-10T00:25:59.758Z,20.7
2022-08-10T00:27:52.779Z,20.7
2022-08-10T00:28:04.085Z,20.7
2022-08-10T00:29:02.992Z,20.7
2022-08-10T00:30:00.659Z,20.6
2022-08-10T00:31:00.554Z,20.6
2022-08-10T00:32:00.235Z,20.6
2022-08-10T00:32:59.997Z,20.6
2022-08-10T00:33:59.691Z,20.7
2022-08-10T00:35:01.454Z,20.6
2022-08-10T00:36:01.102Z,20.6
2022-08-10T00:37:01.063Z,20.6
2022-08-10T00:38:01.072Z,20.6
2022-08-10T00:39:01.490Z,20.6
2022-08-10T00:40:00.845Z,20.6
2022-08-10T00:41:01.292Z,20.6
2022-08-10T00:42:06.482Z,20.6
2022-08-10T00:43:00.957Z,20.6
2022-08-10T00:44:00.714Z,20.6
2022-08-10T00:45:00.743Z,20.6
2022-08-10T00:46:00.643Z,20.6
2022-08-10T00:47:00.534Z,20.6
2022-08-10T00:48:00.177Z,20.6
2022-08-10T00:49:00.253Z,20.6
2022-08-10T00:50:00.499Z,20.5
2022-08-10T00:51:00.403Z,20.5
2022-08-10T00:52:00.120Z,20.5
2022-08-10T00:52:59.821Z,20.5
2022-08-10T00:54:01.822Z,20.5
2022-08-10T00:55:01.579Z,20.5
2022-08-10T00:57:12.487Z,20.5
2022-08-10T00:57:15.929Z,20.5
2022-08-10T00:58:01.827Z,20.5
2022-08-10T00:59:00.997Z,20.5
2022-08-10T01:00:00.948Z,20.5
2022-08-10T01:01:00.790Z,20.5
2022-08-10T01:02:08.380Z,20.5
2022-08-10T01:03:01.215Z,20.5
2022-08-10T01:04:57.601Z,20.5
2022-08-10T01:05:02.323Z,20.5
2022-08-10T01:06:00.245Z,20.5
2022-08-10T01:06:59.897Z,20.4
2022-08-10T01:07:59.613Z,20.3
2022-08-10T01:09:02.289Z,20.3
2022-08-10T01:10:01.596Z,20.3
2022-08-10T01:11:01.165Z,20.3
2022-08-10T01:12:38.597Z,20.3
2022-08-10T01:13:00.974Z,20.3
2022-08-10T01:14:00.793Z,20.2
2022-08-10T01:15:00.590Z,20.2
2022-08-10T01:16:00.490Z,20.2
2022-08-10T01:17:00.523Z,20.2
2022-08-10T01:18:00.310Z,20.2
2022-08-10T01:19:00.123Z,20.2
2022-08-10T01:20:00.665Z,20.1
2022-08-10T01:21:01.371Z,20.1
2022-08-10T01:22:01.295Z,20.1
2022-08-10T01:23:01.362Z,20.1
2022-08-10T01:24:01.046Z,20.1
2022-08-10T01:25:00.716Z,20.1
2022-08-10T01:26:11.168Z,20.2
2022-08-10T01:27:04.756Z,20.1
2022-08-10T01:28:00.718Z,20.1
2022-08-10T01:29:00.353Z,20.1
2022-08-10T01:30:00.087Z,20.1
2022-08-10T01:30:59.867Z,20
2022-08-10T01:32:05.042Z,20
2022-08-10T01:33:00.517Z,20
2022-08-10T01:34:02.549Z,20
2022-08-10T01:35:01.200Z,20
2022-08-10T01:36:00.921Z,20
2022-08-10T01:37:08.370Z,19.9
2022-08-10T01:38:00.831Z,19.9
2022-08-10T01:39:00.536Z,19.9
2022-08-10T01:40:00.232Z,19.8
2022-08-10T01:40:59.924Z,19.8
2022-08-10T01:42:09.987Z,19.8
2022-08-10T01:43:08.572Z,19.8
2022-08-10T01:44:03.718Z,19.8
2022-08-10T01:45:01.881Z,19.8
2022-08-10T01:46:00.782Z,19.8
2022-08-10T01:47:13.456Z,19.7
2022-08-10T01:48:01.458Z,19.7
2022-08-10T01:49:01.217Z,19.7
2022-08-10T01:50:01.033Z,19.7
2022-08-10T01:51:00.790Z,19.7
2022-08-10T01:52:00.879Z,19.7
2022-08-10T01:53:01.099Z,19.8
2022-08-10T01:54:00.837Z,19.8
2022-08-10T01:55:00.490Z,19.8
2022-08-10T01:56:00.255Z,19.8
2022-08-10T01:56:59.936Z,19.8
2022-08-10T01:57:59.632Z,19.8
2022-08-10T01:59:01.798Z,19.8
2022-08-10T02:00:02.570Z,19.8
2022-08-10T02:01:03.073Z,19.8
2022-08-10T02:02:00.784Z,19.8
2022-08-10T02:03:00.495Z,19.7
2022-08-10T02:04:04.522Z,19.7
2022-08-10T02:05:01.256Z,19.6
2022-08-10T02:06:01.031Z,19.6
2022-08-10T02:07:00.710Z,19.6
2022-08-10T02:08:00.430Z,19.6
2022-08-10T02:09:06.358Z,19.5
2022-08-10T02:10:01.351Z,19.5
2022-08-10T02:11:01.025Z,19.5
2022-08-10T02:12:07.048Z,19.5
2022-08-10T02:13:00.864Z,19.5
2022-08-10T02:14:00.581Z,19.5
2022-08-10T02:15:00.355Z,19.5
2022-08-10T02:16:02.035Z,19.5
2022-08-10T02:17:00.818Z,19.4
2022-08-10T02:18:02.040Z,19.3
2022-08-10T02:19:00.587Z,19.4
2022-08-10T02:20:00.293Z,19.4
2022-08-10T02:21:00.015Z,19.4
2022-08-10T02:22:35.124Z,19.3
2022-08-10T02:23:00.730Z,19.4
2022-08-10T02:24:00.687Z,19.4
2022-08-10T02:25:00.432Z,19.4
2022-08-10T02:26:00.094Z,19.4
2022-08-10T02:27:00.055Z,19.5
2022-08-10T02:27:59.847Z,19.4
2022-08-10T02:29:02.533Z,19.5
2022-08-10T02:30:02.440Z,19.5
2022-08-10T02:31:01.289Z,19.5
2022-08-10T02:32:00.997Z,19.5
2022-08-10T02:33:00.660Z,19.5
2022-08-10T02:34:01.000Z,19.4
2022-08-10T02:35:00.565Z,19.4
2022-08-10T02:36:00.670Z,19.4
2022-08-10T02:37:00.414Z,19.3
2022-08-10T02:38:00.177Z,19.3
2022-08-10T02:39:00.860Z,19.3
2022-08-10T02:40:00.906Z,19.3
2022-08-10T02:45:11.082Z,19.4
2022-08-10T02:45:12.481Z,19.4
2022-08-10T02:45:17.700Z,19.4
2022-08-10T02:45:21.102Z,19.4
2022-08-10T02:45:22.914Z,19.4
2022-08-10T02:46:01.256Z,19.4
2022-08-10T02:47:00.937Z,19.5
2022-08-10T02:48:00.694Z,19.5
2022-08-10T02:49:00.453Z,19.5
2022-08-10T02:50:00.273Z,19.5
2022-08-10T02:51:00.108Z,19.5
2022-08-10T02:52:06.855Z,19.5
2022-08-10T02:53:00.806Z,19.5
2022-08-10T02:54:00.449Z,19.5
2022-08-10T02:55:00.119Z,19.4
2022-08-10T02:56:01.255Z,19.4
2022-08-10T02:57:01.776Z,19.3
2022-08-10T02:58:13.431Z,19.3
2022-08-10T02:59:01.652Z,19.3
2022-08-10T03:00:00.973Z,19.3
2022-08-10T03:01:01.761Z,19.3
2022-08-10T03:02:00.975Z,19.3
2022-08-10T03:03:00.653Z,19.3
2022-08-10T03:04:00.385Z,19.4
2022-08-10T03:05:00.015Z,19.4
2022-08-10T03:05:59.703Z,19.4
2022-08-10T03:07:01.416Z,19.4
2022-08-10T03:08:01.117Z,19.5
2022-08-10T03:09:00.829Z,19.4
2022-08-10T03:10:00.519Z,19.4
2022-08-10T03:11:00.500Z,19.4
2022-08-10T03:12:35.201Z,19.4
2022-08-10T03:13:01.146Z,19.4
2022-08-10T03:14:00.815Z,19.3
2022-08-10T03:15:00.460Z,19.3
2022-08-10T03:16:00.783Z,19.2
2022-08-10T03:17:00.426Z,19.1
2022-08-10T03:18:04.267Z,19.1
2022-08-10T03:19:01.369Z,19
2022-08-10T03:20:33.463Z,19
2022-08-10T03:21:01.136Z,19
2022-08-10T03:22:01.723Z,19
2022-08-10T03:23:04.959Z,19
2022-08-10T03:24:01.440Z,19
2022-08-10T03:25:01.327Z,19
2022-08-10T03:26:00.924Z,19
2022-08-10T03:27:00.648Z,19
2022-08-10T03:28:05.342Z,19.1
2022-08-10T03:29:01.323Z,19
2022-08-10T03:30:32.240Z,19
2022-08-10T03:31:01.077Z,19
2022-08-10T03:32:00.868Z,19
2022-08-10T03:33:10.167Z,19
2022-08-10T03:34:00.889Z,19
2022-08-10T03:35:00.542Z,19
2022-08-10T03:36:43.834Z,18.9
2022-08-10T03:37:00.852Z,18.9
2022-08-10T03:38:14.379Z,18.9
2022-08-10T03:39:01.551Z,18.9
2022-08-10T03:40:01.031Z,19
2022-08-10T03:41:01.958Z,19
2022-08-10T03:42:01.040Z,19
2022-08-10T03:43:00.643Z,19
2022-08-10T03:44:00.637Z,18.9
2022-08-10T03:45:00.361Z,18.9
2022-08-10T03:46:00.042Z,18.9
2022-08-10T03:46:59.748Z,18.9
2022-08-10T03:48:01.491Z,18.8
2022-08-10T03:49:01.180Z,18.8
2022-08-10T03:50:03.581Z,18.8
2022-08-10T03:51:01.836Z,18.8
2022-08-10T03:52:02.553Z,18.8
2022-08-10T03:53:01.532Z,18.8
2022-08-10T03:54:03.124Z,18.8
2022-08-10T03:55:01.223Z,18.8
2022-08-10T03:56:28.633Z,18.8
2022-08-10T03:57:01.345Z,18.9
2022-08-10T03:58:00.797Z,18.9
2022-08-10T03:59:00.578Z,18.9
2022-08-10T04:00:00.242Z,18.9
2022-08-10T04:01:00.244Z,19
2022-08-10T04:02:46.140Z,18.9
2022-08-10T04:03:01.241Z,19
2022-08-10T04:04:11.550Z,19
2022-08-10T04:05:00.909Z,19
2022-08-10T04:06:00.594Z,19
2022-08-10T04:07:00.289Z,19
2022-08-10T04:08:00.095Z,19
2022-08-10T04:08:59.789Z,19
2022-08-10T04:10:01.506Z,19
2022-08-10T04:11:01.472Z,19
2022-08-10T04:12:01.153Z,19
2022-08-10T04:13:00.940Z,19
2022-08-10T04:14:01.193Z,19
2022-08-10T04:15:00.747Z,19
2022-08-10T04:16:00.481Z,19
2022-08-10T04:17:01.174Z,19
2022-08-10T04:18:05.814Z,19
2022-08-10T04:19:00.981Z,19
2022-08-10T04:20:00.674Z,19
2022-08-10T04:21:00.383Z,19
2022-08-10T04:22:00.190Z,19
2022-08-10T04:23:00.323Z,19.1
2022-08-10T04:24:01.514Z,19.1
2022-08-10T04:25:01.549Z,19.1
2022-08-10T04:26:02.241Z,19
2022-08-10T04:27:00.719Z,19
2022-08-10T04:28:00.370Z,19
2022-08-10T04:29:00.123Z,19
2022-08-10T04:29:59.778Z,19.1
2022-08-10T04:31:01.555Z,19.1
2022-08-10T04:32:01.270Z,19.1
2022-08-10T04:33:00.862Z,19.1
2022-08-10T04:34:00.565Z,19.1
2022-08-10T04:35:01.536Z,19.2
2022-08-10T04:36:01.298Z,19.3
2022-08-10T04:37:03.363Z,19.3
2022-08-10T04:38:01.089Z,19.3
2022-08-10T04:39:00.777Z,19.3
2022-08-10T04:40:00.470Z,19.3
2022-08-10T04:41:00.245Z,19.4
2022-08-10T04:41:59.892Z,19.4
2022-08-10T04:43:02.265Z,19.4
2022-08-10T04:44:00.597Z,19.3
2022-08-10T04:45:00.323Z,19.1
2022-08-10T04:45:59.987Z,19.1
2022-08-10T04:46:59.728Z,19.1
2022-08-10T04:48:03.265Z,19.2
2022-08-10T04:49:02.197Z,19.2
2022-08-10T04:50:02.430Z,19.3
2022-08-10T04:51:01.512Z,19.3
2022-08-10T04:52:00.886Z,19.3
2022-08-10T04:53:00.693Z,19.4
2022-08-10T04:54:04.411Z,19.4
2022-08-10T04:55:01.339Z,19.4
2022-08-10T04:56:01.664Z,19.4
2022-08-10T04:57:01.025Z,19.5
2022-08-10T04:58:00.715Z,19.5
2022-08-10T04:59:00.439Z,19.5
2022-08-10T05:00:00.102Z,19.4
2022-08-10T05:00:59.943Z,19.4
2022-08-10T05:02:27.837Z,19.4
2022-08-10T05:03:00.643Z,19.4
2022-08-10T05:04:34.386Z,19.4
2022-08-10T05:05:01.320Z,19.4
2022-08-10T05:06:01.477Z,19.5
2022-08-10T05:07:01.382Z,19.5
2022-08-10T05:08:01.048Z,19.4
2022-08-10T05:09:00.726Z,19.4
2022-08-10T05:10:06.060Z,19.4
2022-08-10T05:11:01.430Z,19.4
2022-08-10T05:12:00.862Z,19.3
2022-08-10T05:13:00.614Z,19.3
2022-08-10T05:14:00.493Z,19.3
2022-08-10T05:15:00.238Z,19.3
2022-08-10T05:16:00.027Z,19.3
2022-08-10T05:16:59.821Z,19.3
2022-08-10T05:18:08.709Z,19.3
2022-08-10T05:19:00.652Z,19.4
2022-08-10T05:20:01.512Z,19.3
2022-08-10T05:21:01.368Z,19.3
2022-08-10T05:22:04.368Z,19.2
2022-08-10T05:23:01.081Z,19.2
2022-08-10T05:24:03.605Z,19.2
2022-08-10T05:25:00.893Z,19.2
2022-08-10T05:26:00.547Z,19.3
2022-08-10T05:27:09.892Z,19.2
2022-08-10T05:28:06.087Z,19.3
2022-08-10T05:29:08.363Z,19.3
2022-08-10T05:30:03.441Z,19.5
2022-08-10T05:31:01.192Z,19.9
2022-08-10T05:32:01.713Z,20.2
2022-08-10T05:33:04.978Z,20.5
2022-08-10T05:34:20.681Z,20.8
2022-08-10T05:35:00.874Z,21.1
2022-08-10T05:36:00.565Z,21.5
2022-08-10T05:37:00.294Z,21.8
2022-08-10T05:38:12.291Z,22.1
2022-08-10T05:39:12.181Z,22.3
2022-08-10T05:40:00.960Z,22.6
2022-08-10T05:41:00.678Z,22.9
2022-08-10T05:42:01.077Z,23.1
2022-08-10T05:43:01.080Z,23.3
2022-08-10T05:44:00.815Z,23.4
2022-08-10T05:45:00.460Z,23.5
2022-08-10T05:46:17.103Z,23.6
2022-08-10T05:47:00.631Z,23.6
2022-08-10T05:48:57.253Z,23.7
2022-08-10T05:49:02.042Z,23.8
2022-08-10T05:49:59.598Z,24
2022-08-10T05:51:01.289Z,24.1
2022-08-10T05:52:00.668Z,24.3
2022-08-10T05:53:13.971Z,24.5
2022-08-10T05:54:05.700Z,24.6
2022-08-10T05:55:02.900Z,24.7
2022-08-10T05:56:01.382Z,24.8
2022-08-10T05:57:01.113Z,24.8
2022-08-10T05:58:01.226Z,24.9
2022-08-10T05:59:00.814Z,25
2022-08-10T06:00:31.076Z,25.1
2022-08-10T06:01:01.725Z,25.2
2022-08-10T06:02:31.176Z,25.3
2022-08-10T06:03:01.253Z,25.5
2022-08-10T06:04:00.940Z,25.5
2022-08-10T06:05:00.654Z,25.6
2022-08-10T06:06:00.360Z,25.6
2022-08-10T06:07:00.067Z,25.8
2022-08-10T06:07:59.751Z,25.9
2022-08-10T06:09:01.529Z,26
2022-08-10T06:10:00.686Z,26
2022-08-10T06:12:25.491Z,26.1
2022-08-10T06:12:27.135Z,26.2
2022-08-10T06:13:01.803Z,26.1
2022-08-10T06:14:15.773Z,25.9
2022-08-10T06:15:05.245Z,25.6
2022-08-10T06:16:01.617Z,25.5
2022-08-10T06:17:01.353Z,25.5
2022-08-10T06:18:02.283Z,25.6
2022-08-10T06:19:01.005Z,25.7
2022-08-10T06:20:01.791Z,25.6
2022-08-10T06:21:01.015Z,25.6
2022-08-10T06:22:01.709Z,25.5
2022-08-10T06:23:00.865Z,25.5
2022-08-10T06:24:00.569Z,25.5
2022-08-10T06:25:32.051Z,25.6
2022-08-10T06:26:10.904Z,25.7
2022-08-10T06:27:00.987Z,25.7
2022-08-10T06:28:00.721Z,25.7
2022-08-10T06:29:03.145Z,25.5
2022-08-10T06:30:00.699Z,25.1
2022-08-10T06:31:00.527Z,24.8
2022-08-10T06:32:00.219Z,24.3
2022-08-10T06:32:59.867Z,24
2022-08-10T06:34:01.555Z,23.7
2022-08-10T06:35:01.248Z,23.5
2022-08-10T06:36:01.022Z,23.2
2022-08-10T06:37:01.402Z,23
2022-08-10T06:38:01.087Z,22.6
2022-08-10T06:39:22.958Z,22.5
2022-08-10T06:40:00.777Z,22.3
2022-08-10T06:41:00.584Z,22.1
2022-08-10T06:42:16.619Z,22
2022-08-10T06:43:01.262Z,22
2022-08-10T06:44:01.003Z,21.8
2022-08-10T06:45:00.693Z,21.8
2022-08-10T06:46:08.093Z,21.7
2022-08-10T06:47:01.229Z,21.6
2022-08-10T06:48:00.873Z,21.6
2022-08-10T06:49:00.546Z,21.6
2022-08-10T06:50:01.547Z,21.6
2022-08-10T06:51:01.288Z,21.6
2022-08-10T06:52:00.854Z,21.5
2022-08-10T06:53:00.565Z,21.5
2022-08-10T06:54:00.264Z,21.5
2022-08-10T06:55:05.610Z,21.5
2022-08-10T06:56:00.989Z,21.5
2022-08-10T06:58:00.929Z,21.5
2022-08-10T06:59:00.935Z,21.5
2022-08-10T07:00:06.716Z,21.4
2022-08-10T07:01:00.780Z,21.4
2022-08-10T07:02:01.022Z,21.4
2022-08-10T07:03:00.674Z,21.5
2022-08-10T07:04:00.735Z,21.5
2022-08-10T07:05:07.215Z,21.5
2022-08-10T07:06:00.605Z,21.6
2022-08-10T07:07:00.341Z,21.6
2022-08-10T07:08:00.042Z,21.6
2022-08-10T07:08:59.848Z,21.7
2022-08-10T07:10:11.076Z,21.8
2022-08-10T07:11:00.687Z,21.8
2022-08-10T07:12:07.584Z,21.8
2022-08-10T07:13:01.401Z,21.8
2022-08-10T07:14:15.360Z,21.8
2022-08-10T07:15:12.868Z,21.8
2022-08-10T07:16:00.943Z,21.8
2022-08-10T07:17:00.589Z,21.8
2022-08-10T07:18:00.319Z,21.8
2022-08-10T07:19:00.007Z,21.9
2022-08-10T07:19:59.708Z,21.8
2022-08-10T07:21:01.773Z,21.9
2022-08-10T07:22:00.868Z,21.9
2022-08-10T07:23:56.939Z,21.9
2022-08-10T07:24:01.141Z,21.9
2022-08-10T07:24:59.755Z,22
2022-08-10T07:26:01.960Z,22
2022-08-10T07:27:01.491Z,22
2022-08-10T07:28:02.108Z,22
2022-08-10T07:29:01.230Z,21.9
2022-08-10T07:30:01.000Z,22
2022-08-10T07:31:01.733Z,22
2022-08-10T07:32:01.456Z,22
2022-08-10T07:33:00.861Z,22.1
2022-08-10T07:34:00.634Z,22.1
2022-08-10T07:35:00.325Z,22.1
2022-08-10T07:36:00.134Z,22.1
2022-08-10T07:36:59.923Z,22.2
2022-08-10T07:37:59.631Z,22.2
2022-08-10T07:39:01.370Z,22.2
2022-08-10T07:40:03.875Z,22.2
2022-08-10T07:41:01.209Z,22.2
2022-08-10T07:42:00.675Z,22.2
2022-08-10T07:43:00.470Z,22.2
2022-08-10T07:44:00.303Z,22.2
2022-08-10T07:44:59.992Z,22.2
2022-08-10T07:45:59.671Z,22.2
2022-08-10T07:47:01.342Z,22.2
2022-08-10T07:48:06.681Z,22.2
2022-08-10T07:49:01.027Z,22.2
2022-08-10T07:50:00.724Z,22.2
2022-08-10T07:51:01.097Z,22.2
2022-08-10T07:52:00.738Z,22.3
2022-08-10T07:53:00.378Z,22.3
2022-08-10T07:54:00.034Z,22.3
2022-08-10T07:54:59.698Z,22.3
2022-08-10T07:56:10.508Z,22.3
2022-08-10T07:57:01.211Z,22.3
2022-08-10T07:58:01.006Z,22.4
2022-08-10T07:59:00.679Z,22.4
2022-08-10T08:00:00.850Z,22.5
2022-08-10T08:01:00.658Z,22.5
2022-08-10T08:02:00.430Z,22.5
2022-08-10T08:03:00.224Z,22.5
2022-08-10T08:04:05.991Z,22.5
2022-08-10T08:05:00.931Z,22.6
2022-08-10T08:06:05.677Z,22.6
2022-08-10T08:07:00.873Z,22.6
2022-08-10T08:08:00.540Z,22.7
2022-08-10T08:09:00.249Z,22.7
2022-08-10T08:10:01.111Z,22.7
2022-08-10T08:11:01.088Z,22.8
2022-08-10T08:12:01.415Z,22.8
2022-08-10T08:13:00.817Z,22.8
2022-08-10T08:14:00.481Z,22.8
2022-08-10T08:15:00.207Z,22.8
2022-08-10T08:16:18.014Z,22.8
2022-08-10T08:17:01.120Z,22.8
2022-08-10T08:18:00.976Z,22.9
2022-08-10T08:19:26.553Z,22.9
2022-08-10T08:20:00.740Z,23
2022-08-10T08:21:01.032Z,23
2022-08-10T08:24:04.779Z,23
2022-08-10T08:24:07.519Z,23.1
2022-08-10T08:24:07.958Z,23
2022-08-10T08:25:01.013Z,23
2022-08-10T08:26:00.684Z,23
2022-08-10T08:27:00.331Z,23
2022-08-10T08:28:00.081Z,23
2022-08-10T08:28:59.748Z,23
2022-08-10T08:30:01.017Z,23
2022-08-10T08:31:00.706Z,23
2022-08-10T08:32:02.416Z,23.1
2022-08-10T08:33:01.371Z,23.1
2022-08-10T08:34:00.609Z,23.1
2022-08-10T08:35:00.324Z,23.1
2022-08-10T08:36:01.901Z,23.3
2022-08-10T08:37:01.271Z,23.3
2022-08-10T08:38:33.086Z,23.3
2022-08-10T08:39:00.942Z,23.4
2022-08-10T08:40:00.655Z,23.5
2022-08-10T08:41:05.301Z,23.5
2022-08-10T08:42:01.064Z,23.5
2022-08-10T08:43:00.767Z,23.5
2022-08-10T08:44:00.485Z,23.6
2022-08-10T08:45:00.782Z,23.6
2022-08-10T08:46:10.121Z,23.6
2022-08-10T08:47:00.909Z,23.6
2022-08-10T08:48:04.644Z,23.7
2022-08-10T08:49:00.613Z,23.8
2022-08-10T08:50:07.635Z,23.8
2022-08-10T08:51:13.331Z,23.9
2022-08-10T08:52:08.219Z,23.9
2022-08-10T08:53:01.140Z,23.9
2022-08-10T08:54:03.938Z,23.9
2022-08-10T08:55:00.909Z,23.9
2022-08-10T08:56:06.356Z,23.9
2022-08-10T08:57:01.287Z,23.9
2022-08-10T08:58:00.967Z,23.9
2022-08-10T08:59:00.951Z,24
2022-08-10T09:00:01.853Z,24.1
2022-08-10T09:01:00.793Z,24.1
2022-08-10T09:02:00.585Z,24.2
2022-08-10T09:03:00.356Z,24.3
2022-08-10T09:04:00.119Z,24.3
2022-08-10T09:04:59.901Z,24.3
2022-08-10T09:06:00.848Z,24.3
2022-08-10T09:07:00.620Z,24.3
2022-08-10T09:08:03.031Z,24.3
2022-08-10T09:09:01.342Z,24.3
2022-08-10T09:10:01.064Z,24.3
2022-08-10T09:11:00.819Z,24.3
2022-08-10T09:12:00.588Z,24.3
2022-08-10T09:13:00.264Z,24.4
2022-08-10T09:14:00.283Z,24.4
2022-08-10T09:15:00.385Z,24.5
2022-08-10T09:16:00.848Z,24.5
2022-08-10T09:17:00.929Z,24.5
2022-08-10T09:18:00.720Z,24.5
2022-08-10T09:19:00.702Z,24.5
2022-08-10T09:20:00.466Z,24.5
2022-08-10T09:21:00.371Z,24.5
2022-08-10T09:22:17.439Z,24.4
2022-08-10T09:23:01.055Z,24.4
2022-08-10T09:24:01.596Z,24.5
2022-08-10T09:25:00.746Z,24.6
2022-08-10T09:26:00.795Z,24.7
2022-08-10T09:27:00.462Z,24.8
2022-08-10T09:28:00.076Z,24.9
2022-08-10T09:29:12.888Z,25
2022-08-10T09:30:01.151Z,25
2022-08-10T09:31:21.447Z,25
2022-08-10T09:36:13.292Z,25
2022-08-10T09:36:14.941Z,25.1
2022-08-10T09:36:22.447Z,25.1
2022-08-10T09:36:23.156Z,25.1
2022-08-10T09:36:23.869Z,25.1
2022-08-10T09:37:00.813Z,25
2022-08-10T09:38:01.973Z,25
2022-08-10T09:39:01.793Z,25
2022-08-10T09:40:56.143Z,25
2022-08-10T09:41:05.073Z,25
2022-08-10T09:42:00.956Z,25
2022-08-10T09:43:23.620Z,25
2022-08-10T09:44:00.715Z,25
2022-08-10T09:45:00.490Z,25
2022-08-10T09:46:00.184Z,25
2022-08-10T09:46:59.880Z,25
2022-08-10T09:48:01.854Z,25
2022-08-10T09:49:00.598Z,25
2022-08-10T09:50:04.495Z,25
2022-08-10T09:51:43.580Z,25
2022-08-10T09:52:00.666Z,25
2022-08-10T09:53:00.372Z,25
2022-08-10T09:54:00.043Z,25
2022-08-10T09:54:59.833Z,25
2022-08-10T09:56:17.606Z,25
2022-08-10T09:57:24.541Z,24.9
2022-08-10T09:58:00.981Z,24.8
2022-08-10T09:59:47.272Z,24.7
2022-08-10T10:00:02.757Z,24.6
2022-08-10T10:01:00.981Z,24.6
2022-08-10T10:02:03.367Z,24.6
2022-08-10T10:03:01.689Z,24.6
2022-08-10T10:04:01.234Z,24.7
2022-08-10T10:05:01.002Z,24.7
2022-08-10T10:06:00.705Z,24.7
2022-08-10T10:07:00.404Z,24.7
2022-08-10T10:08:00.103Z,24.6
2022-08-10T10:09:10.235Z,24.7
2022-08-10T10:10:01.145Z,24.8
2022-08-10T10:11:00.840Z,24.8
2022-08-10T10:12:05.346Z,24.9
2022-08-10T10:13:01.583Z,24.9
2022-08-10T10:14:02.596Z,25
2022-08-10T10:15:01.286Z,25
2022-08-10T10:16:01.216Z,25
2022-08-10T10:17:00.997Z,25.1
2022-08-10T10:18:00.747Z,25
2022-08-10T10:19:00.508Z,25
2022-08-10T10:20:01.233Z,25.1
2022-08-10T10:21:01.008Z,25.1
2022-08-10T10:22:00.718Z,25.1
2022-08-10T10:23:00.370Z,25
2022-08-10T10:24:20.451Z,25
2022-08-10T10:25:01.105Z,25
2022-08-10T10:26:04.985Z,25
2022-08-10T10:27:02.374Z,25
2022-08-10T10:28:01.424Z,25
2022-08-10T10:29:44.798Z,25
2022-08-10T10:30:01.721Z,25
2022-08-10T10:31:00.673Z,25
2022-08-10T10:32:03.174Z,25
2022-08-10T10:33:01.103Z,25
2022-08-10T10:34:00.788Z,25
2022-08-10T10:35:00.700Z,25.1
2022-08-10T10:36:00.500Z,25.1
2022-08-10T10:37:07.875Z,25.1
2022-08-10T10:38:03.582Z,25.2
2022-08-10T10:39:00.613Z,25.3
2022-08-10T10:40:00.390Z,25.3
2022-08-10T10:41:00.126Z,25.4
2022-08-10T10:42:18.603Z,25.4
2022-08-10T10:43:00.845Z,25.5
2022-08-10T10:44:00.539Z,25.6
2022-08-10T10:45:01.418Z,25.6
2022-08-10T10:46:00.835Z,25.6
2022-08-10T10:47:11.105Z,25.7
2022-08-10T10:48:01.603Z,25.7
2022-08-10T10:49:00.793Z,25.8
2022-08-10T10:50:00.445Z,25.8
2022-08-10T10:51:00.519Z,25.8
2022-08-10T10:52:15.815Z,25.8
2022-08-10T10:53:01.178Z,25.8
2022-08-10T10:54:00.844Z,25.8
2022-08-10T10:55:00.530Z,25.8
2022-08-10T10:56:14.396Z,25.8
2022-08-10T10:57:01.074Z,25.8
2022-08-10T10:58:01.410Z,25.8
2022-08-10T10:59:00.689Z,25.8
2022-08-10T11:00:01.210Z,25.8
2022-08-10T11:01:01.150Z,25.9
2022-08-10T11:02:00.879Z,26
2022-08-10T11:03:00.561Z,26
2022-08-10T11:04:00.506Z,26
2022-08-10T11:05:00.202Z,26
2022-08-10T11:05:59.978Z,26
2022-08-10T11:06:59.731Z,26
2022-08-10T11:08:01.424Z,26
2022-08-10T11:09:01.124Z,26
2022-08-10T11:10:04.684Z,26
2022-08-10T11:11:00.740Z,26
2022-08-10T11:12:02.833Z,26.1
2022-08-10T11:13:09.616Z,26.1
2022-08-10T11:14:24.897Z,26.1
2022-08-10T11:15:01.123Z,26.1
2022-08-10T11:16:00.855Z,26.2
2022-08-10T11:17:00.605Z,26.1
2022-08-10T11:18:00.365Z,26.1
2022-08-10T11:19:00.074Z,26.2
2022-08-10T11:20:02.058Z,26.2
2022-08-10T11:21:00.810Z,26.2
2022-08-10T11:22:00.612Z,26.2
2022-08-10T11:23:00.308Z,26.2
2022-08-10T11:24:48.978Z,26.3
2022-08-10T11:25:01.032Z,26.3
2022-08-10T11:26:00.720Z,26.3
2022-08-10T11:27:00.415Z,26.3
2022-08-10T11:28:00.148Z,26.3
2022-08-10T11:28:59.841Z,26.3
2022-08-10T11:30:02.312Z,26.3
2022-08-10T11:31:02.617Z,26.3
2022-08-10T11:32:01.078Z,26.3
2022-08-10T11:33:00.776Z,26.3
2022-08-10T11:34:49.220Z,26.3
2022-08-10T11:35:11.910Z,26.3
2022-08-10T11:36:01.521Z,26.3
2022-08-10T11:37:01.097Z,26.3
2022-08-10T11:38:30.049Z,26.3
2022-08-10T11:39:14.706Z,26.2
2022-08-10T11:40:01.707Z,26.3
2022-08-10T11:41:12.830Z,26.3
2022-08-10T11:42:09.668Z,26.3
2022-08-10T11:43:01.057Z,26.3
2022-08-10T11:44:00.822Z,26.3
2022-08-10T11:45:00.599Z,26.3
2022-08-10T11:46:07.418Z,26.4
2022-08-10T11:47:00.974Z,26.4
2022-08-10T11:48:00.656Z,26.4
2022-08-10T11:49:04.019Z,26.5
2022-08-10T11:50:01.798Z,26.5
2022-08-10T11:51:00.891Z,26.5
2022-08-10T11:52:01.550Z,26.5
2022-08-10T11:53:00.783Z,26.6
2022-08-10T11:54:00.521Z,26.6
2022-08-10T11:55:00.423Z,26.6
2022-08-10T11:56:01.412Z,26.6
2022-08-10T11:57:03.119Z,26.6
2022-08-10T11:58:01.347Z,26.6
2022-08-10T11:59:00.825Z,26.6
2022-08-10T12:00:00.551Z,26.6
2022-08-10T12:01:00.391Z,26.6
2022-08-10T12:02:00.386Z,26.6
2022-08-10T12:03:01.521Z,26.6
2022-08-10T12:04:02.589Z,26.6
2022-08-10T12:05:01.398Z,26.6
2022-08-10T12:06:01.096Z,26.7
2022-08-10T12:07:00.758Z,26.7
2022-08-10T12:10:01.875Z,26.7
2022-08-10T12:10:05.581Z,26.6
2022-08-10T12:10:08.634Z,26.6
2022-08-10T12:11:00.821Z,26.6
2022-08-10T12:12:01.119Z,26.6
2022-08-10T12:13:08.640Z,26.6
2022-08-10T12:14:20.192Z,26.6
2022-08-10T12:15:02.420Z,26.6
2022-08-10T12:16:04.834Z,26.7
2022-08-10T12:17:00.858Z,26.8
2022-08-10T12:18:08.708Z,26.8
2022-08-10T12:19:00.686Z,26.8
2022-08-10T12:20:02.484Z,26.8
2022-08-10T12:21:01.508Z,26.8
2022-08-10T12:22:05.290Z,26.8
2022-08-10T12:23:09.868Z,26.8
2022-08-10T12:24:02.785Z,26.8
2022-08-10T12:25:00.619Z,26.8
2022-08-10T12:26:00.414Z,26.8
2022-08-10T12:27:00.037Z,26.8
2022-08-10T12:28:12.796Z,26.8
2022-08-10T12:29:00.721Z,26.8
2022-08-10T12:30:01.075Z,26.9
2022-08-10T12:31:00.849Z,27
2022-08-10T12:32:00.443Z,27
2022-08-10T12:33:00.160Z,27
2022-08-10T12:34:01.999Z,27
2022-08-10T12:35:00.906Z,27
2022-08-10T12:36:18.260Z,27
2022-08-10T12:37:01.484Z,27
2022-08-10T12:38:16.308Z,27
2022-08-10T12:39:01.126Z,27
2022-08-10T12:40:31.289Z,27
2022-08-10T12:41:00.880Z,27.1
2022-08-10T12:42:00.447Z,27.1
2022-08-10T12:43:12.799Z,27.2
2022-08-10T12:44:05.151Z,27.2
2022-08-10T12:45:01.118Z,27.3
2022-08-10T12:46:05.800Z,27.3
2022-08-10T12:47:00.858Z,27.3
2022-08-10T12:48:01.484Z,27.3
2022-08-10T12:49:01.164Z,27.3
2022-08-10T12:50:21.640Z,27.2
2022-08-10T12:51:00.879Z,27.1
2022-08-10T12:52:00.628Z,27.1
2022-08-10T12:53:00.328Z,27
2022-08-10T12:54:01.640Z,27
2022-08-10T12:55:01.312Z,27
2022-08-10T12:56:01.028Z,26.9
2022-08-10T12:57:00.710Z,26.9
2022-08-10T12:58:00.429Z,26.8
2022-08-10T12:59:01.892Z,26.8
2022-08-10T13:00:01.268Z,26.8
2022-08-10T13:01:17.367Z,26.8
2022-08-10T13:02:07.770Z,26.7
2022-08-10T13:03:01.494Z,26.7
2022-08-10T13:04:23.544Z,26.7
2022-08-10T13:05:01.290Z,26.6
2022-08-10T13:06:02.851Z,26.6
2022-08-10T13:07:00.872Z,26.6
2022-08-10T13:08:25.541Z,26.6
2022-08-10T13:09:00.512Z,26.6
2022-08-10T13:10:00.219Z,26.6
2022-08-10T13:10:59.989Z,26.6
2022-08-10T13:12:35.191Z,26.6
2022-08-10T13:13:00.716Z,26.6
2022-08-10T13:14:00.404Z,26.6
2022-08-10T13:15:00.121Z,26.6
2022-08-10T13:15:59.810Z,26.6
2022-08-10T13:17:02.500Z,26.6
2022-08-10T13:18:00.749Z,26.6
2022-08-10T13:19:00.971Z,26.6
2022-08-10T13:20:08.158Z,26.6
2022-08-10T13:21:00.679Z,26.6
2022-08-10T13:22:00.391Z,26.6
2022-08-10T13:23:00.033Z,26.6
2022-08-10T13:24:04.071Z,26.6
2022-08-10T13:25:00.809Z,26.6
2022-08-10T13:26:00.492Z,26.6
2022-08-10T13:27:26.495Z,26.5
2022-08-10T13:28:34.890Z,26.5